This is the latest recevied weather packets stored in our database for station/object RODN. If no packets are shown the sender has not sent any weather packets the latest 1 day(s).
| Time | Temp. | Humidity | Pressure | Rain* | Wind** | Luminosity | Snow |
|---|---|---|---|---|---|---|---|
| 1836274594 | 32.78° C | 63% | 1011.9 hPa | - | 2.68 m/s, 120° | - | - |
| 1836274446 | 32.78° C | 63% | 1011.9 hPa | - | 2.68 m/s, 120° | - | - |
| 1836273994 | 32.78° C | 63% | 1011.9 hPa | - | 2.68 m/s, 120° | - | - |
| 1778069026 | 18.89° C | 88% | 1013.2 hPa | - | 0 m/s | - | - |
| 1778068427 | 18.89° C | 88% | 1013.2 hPa | - | 0 m/s | - | - |
| 1778067827 | 18.89° C | 88% | 1013.2 hPa | - | 0 m/s | - | - |
| 1778067225 | 18.89° C | 88% | 1013.2 hPa | - | 0 m/s | - | - |
| 1778066630 | 18.89° C | 88% | 1013.2 hPa | - | 0 m/s | - | - |
| 1778066029 | 18.89° C | 88% | 1013.2 hPa | - | 0 m/s | - | - |
| 1778065426 | 21.67° C | 83% | 1013.2 hPa | - | 4.47 m/s, 170° | - | - |
| 1778064826 | 21.67° C | 83% | 1013.2 hPa | - | 4.47 m/s, 170° | - | - |
| 1778064229 | 21.67° C | 83% | 1013.2 hPa | - | 4.47 m/s, 170° | - | - |
| 1778063627 | 21.67° C | 83% | 1013.2 hPa | - | 4.47 m/s, 170° | - | - |
| 1778063029 | 21.67° C | 83% | 1013.2 hPa | - | 4.47 m/s, 170° | - | - |
| 1778062427 | 21.67° C | 83% | 1013.2 hPa | - | 4.47 m/s, 170° | - | - |
| 1778061828 | 21.67° C | 78% | 1013.2 hPa | - | 3.58 m/s, 190° | - | - |
| 1778061230 | 21.67° C | 78% | 1019.6 hPa | - | 3.58 m/s, 190° | - | - |
| 1778060752 | 21.67° C | 78% | 1019.6 hPa | - | 3.58 m/s, 190° | - | - |
| 1778060028 | 21.67° C | 73% | 1012.5 hPa | - | 4.47 m/s, 170° | - | - |
| 1778059427 | 21.67° C | 78% | 1012.5 hPa | - | 2.24 m/s, 130° | - | - |
| 1778058827 | 21.67° C | 78% | 1012.5 hPa | - | 2.24 m/s, 130° | - | - |
| 1778058230 | 22.78° C | 83% | 1019.6 hPa | - | 6.71 m/s, 160° | - | - |
| 1778057630 | 22.78° C | 83% | 1020 hPa | - | 6.71 m/s, 160° | - | - |
| 1778057032 | 22.78° C | 83% | 1020 hPa | - | 6.71 m/s, 160° | - | - |
| 1778056427 | 22.78° C | 83% | 1020 hPa | - | 6.71 m/s, 160° | - | - |
* Rain since midnight (hover to see other rain measurements)
** Current wind speed in m/s (hover to see current wind gust speed)